sensor_id;sensor_type;location;lat;lon;timestamp;P1;durP1;ratioP1;P2;durP2;ratioP2
25045;SDS011;13044;49.304;12.840;2022-07-06T00:00:50;3.47;;;2.13;;
25045;SDS011;13044;49.304;12.840;2022-07-06T00:03:17;2.15;;;1.95;;
25045;SDS011;13044;49.304;12.840;2022-07-06T00:05:44;4.15;;;2.10;;
25045;SDS011;13044;49.304;12.840;2022-07-06T00:08:11;4.18;;;2.17;;
25045;SDS011;13044;49.304;12.840;2022-07-06T00:10:38;2.08;;;1.88;;
25045;SDS011;13044;49.304;12.840;2022-07-06T00:13:05;2.65;;;2.00;;
25045;SDS011;13044;49.304;12.840;2022-07-06T00:15:31;2.28;;;2.08;;
25045;SDS011;13044;49.304;12.840;2022-07-06T00:17:58;6.07;;;2.30;;
25045;SDS011;13044;49.304;12.840;2022-07-06T00:20:25;6.40;;;2.58;;
25045;SDS011;13044;49.304;12.840;2022-07-06T00:22:52;5.78;;;2.75;;
25045;SDS011;13044;49.304;12.840;2022-07-06T00:25:19;5.53;;;3.05;;
25045;SDS011;13044;49.304;12.840;2022-07-06T00:27:46;3.80;;;2.58;;
25045;SDS011;13044;49.304;12.840;2022-07-06T00:30:13;5.55;;;2.67;;
25045;SDS011;13044;49.304;12.840;2022-07-06T00:32:40;3.97;;;3.05;;
25045;SDS011;13044;49.304;12.840;2022-07-06T00:35:07;5.47;;;2.42;;
25045;SDS011;13044;49.304;12.840;2022-07-06T00:37:34;4.80;;;2.80;;
25045;SDS011;13044;49.304;12.840;2022-07-06T00:40:01;3.53;;;2.70;;
25045;SDS011;13044;49.304;12.840;2022-07-06T00:42:28;3.17;;;2.63;;
25045;SDS011;13044;49.304;12.840;2022-07-06T00:44:55;6.22;;;2.60;;
25045;SDS011;13044;49.304;12.840;2022-07-06T00:47:22;3.38;;;2.65;;
25045;SDS011;13044;49.304;12.840;2022-07-06T00:49:49;2.50;;;2.30;;
25045;SDS011;13044;49.304;12.840;2022-07-06T00:52:34;3.10;;;2.58;;
25045;SDS011;13044;49.304;12.840;2022-07-06T00:55:01;5.35;;;2.33;;
25045;SDS011;13044;49.304;12.840;2022-07-06T00:57:28;8.23;;;2.40;;
25045;SDS011;13044;49.304;12.840;2022-07-06T00:59:56;5.95;;;2.65;;
25045;SDS011;13044;49.304;12.840;2022-07-06T01:02:23;5.47;;;2.78;;
25045;SDS011;13044;49.304;12.840;2022-07-06T01:04:50;2.72;;;2.47;;
25045;SDS011;13044;49.304;12.840;2022-07-06T01:07:17;4.30;;;2.10;;
25045;SDS011;13044;49.304;12.840;2022-07-06T01:09:44;5.50;;;2.28;;
25045;SDS011;13044;49.304;12.840;2022-07-06T01:12:11;4.55;;;2.40;;
25045;SDS011;13044;49.304;12.840;2022-07-06T01:14:37;5.13;;;2.33;;
25045;SDS011;13044;49.304;12.840;2022-07-06T01:17:05;3.75;;;2.05;;
25045;SDS011;13044;49.304;12.840;2022-07-06T01:19:33;2.33;;;2.13;;
25045;SDS011;13044;49.304;12.840;2022-07-06T01:22:00;2.67;;;2.38;;
25045;SDS011;13044;49.304;12.840;2022-07-06T01:24:27;4.15;;;2.20;;
25045;SDS011;13044;49.304;12.840;2022-07-06T01:26:54;3.55;;;2.30;;
25045;SDS011;13044;49.304;12.840;2022-07-06T01:29:21;3.08;;;2.45;;
25045;SDS011;13044;49.304;12.840;2022-07-06T01:31:49;2.78;;;2.08;;
25045;SDS011;13044;49.304;12.840;2022-07-06T01:34:17;5.65;;;2.53;;
25045;SDS011;13044;49.304;12.840;2022-07-06T01:36:45;2.47;;;2.28;;
25045;SDS011;13044;49.304;12.840;2022-07-06T01:39:12;2.08;;;1.85;;
25045;SDS011;13044;49.304;12.840;2022-07-06T01:41:39;4.30;;;2.55;;
25045;SDS011;13044;49.304;12.840;2022-07-06T01:44:07;3.00;;;2.30;;
25045;SDS011;13044;49.304;12.840;2022-07-06T01:46:34;2.30;;;2.10;;
25045;SDS011;13044;49.304;12.840;2022-07-06T01:49:01;2.67;;;2.45;;
25045;SDS011;13044;49.304;12.840;2022-07-06T01:51:29;4.35;;;2.10;;
25045;SDS011;13044;49.304;12.840;2022-07-06T01:53:57;3.67;;;2.40;;
25045;SDS011;13044;49.304;12.840;2022-07-06T01:56:24;2.30;;;2.10;;
25045;SDS011;13044;49.304;12.840;2022-07-06T01:58:51;2.47;;;2.28;;
25045;SDS011;13044;49.304;12.840;2022-07-06T02:01:19;2.38;;;2.15;;
25045;SDS011;13044;49.304;12.840;2022-07-06T02:03:47;2.15;;;2.00;;
25045;SDS011;13044;49.304;12.840;2022-07-06T02:06:14;3.63;;;2.25;;
25045;SDS011;13044;49.304;12.840;2022-07-06T02:08:42;2.88;;;2.00;;
25045;SDS011;13044;49.304;12.840;2022-07-06T02:11:09;2.45;;;2.25;;
25045;SDS011;13044;49.304;12.840;2022-07-06T02:13:37;3.38;;;2.10;;
25045;SDS011;13044;49.304;12.840;2022-07-06T02:16:04;2.42;;;2.22;;
25045;SDS011;13044;49.304;12.840;2022-07-06T02:18:31;2.47;;;2.25;;
25045;SDS011;13044;49.304;12.840;2022-07-06T02:20:58;2.58;;;2.17;;
25045;SDS011;13044;49.304;12.840;2022-07-06T02:23:25;2.60;;;2.22;;
25045;SDS011;13044;49.304;12.840;2022-07-06T02:25:53;3.33;;;2.30;;
25045;SDS011;13044;49.304;12.840;2022-07-06T02:28:19;2.58;;;2.28;;
25045;SDS011;13044;49.304;12.840;2022-07-06T02:30:47;5.53;;;2.55;;
25045;SDS011;13044;49.304;12.840;2022-07-06T02:33:14;2.80;;;2.38;;
25045;SDS011;13044;49.304;12.840;2022-07-06T02:35:41;3.65;;;2.60;;
25045;SDS011;13044;49.304;12.840;2022-07-06T02:38:09;4.07;;;2.40;;
25045;SDS011;13044;49.304;12.840;2022-07-06T02:40:36;6.43;;;2.55;;
25045;SDS011;13044;49.304;12.840;2022-07-06T02:43:04;4.65;;;2.38;;
25045;SDS011;13044;49.304;12.840;2022-07-06T02:45:31;3.10;;;2.47;;
25045;SDS011;13044;49.304;12.840;2022-07-06T02:47:59;2.75;;;2.40;;
25045;SDS011;13044;49.304;12.840;2022-07-06T02:50:26;6.65;;;2.83;;
25045;SDS011;13044;49.304;12.840;2022-07-06T02:52:53;3.38;;;2.45;;
25045;SDS011;13044;49.304;12.840;2022-07-06T02:55:21;3.10;;;2.53;;
25045;SDS011;13044;49.304;12.840;2022-07-06T02:57:48;8.27;;;2.78;;
25045;SDS011;13044;49.304;12.840;2022-07-06T03:00:15;6.35;;;2.60;;
25045;SDS011;13044;49.304;12.840;2022-07-06T03:02:42;7.53;;;2.75;;
25045;SDS011;13044;49.304;12.840;2022-07-06T03:05:09;7.18;;;2.60;;
25045;SDS011;13044;49.304;12.840;2022-07-06T03:07:37;9.75;;;2.80;;
25045;SDS011;13044;49.304;12.840;2022-07-06T03:10:04;4.65;;;2.58;;
25045;SDS011;13044;49.304;12.840;2022-07-06T03:12:31;2.80;;;2.58;;
25045;SDS011;13044;49.304;12.840;2022-07-06T03:14:58;3.53;;;2.45;;
25045;SDS011;13044;49.304;12.840;2022-07-06T03:17:25;4.20;;;2.70;;
25045;SDS011;13044;49.304;12.840;2022-07-06T03:19:52;6.30;;;2.95;;
25045;SDS011;13044;49.304;12.840;2022-07-06T03:22:19;2.92;;;2.72;;
25045;SDS011;13044;49.304;12.840;2022-07-06T03:24:46;7.65;;;3.10;;
25045;SDS011;13044;49.304;12.840;2022-07-06T03:27:13;5.50;;;2.70;;
25045;SDS011;13044;49.304;12.840;2022-07-06T03:29:40;5.93;;;2.60;;
25045;SDS011;13044;49.304;12.840;2022-07-06T03:32:07;4.63;;;2.70;;
25045;SDS011;13044;49.304;12.840;2022-07-06T03:34:34;6.30;;;3.20;;
25045;SDS011;13044;49.304;12.840;2022-07-06T03:37:01;4.07;;;2.67;;
25045;SDS011;13044;49.304;12.840;2022-07-06T03:39:28;10.75;;;2.90;;
25045;SDS011;13044;49.304;12.840;2022-07-06T03:41:55;3.40;;;2.80;;
25045;SDS011;13044;49.304;12.840;2022-07-06T03:44:21;5.43;;;3.10;;
25045;SDS011;13044;49.304;12.840;2022-07-06T03:46:48;3.10;;;2.80;;
25045;SDS011;13044;49.304;12.840;2022-07-06T03:49:17;5.05;;;2.92;;
25045;SDS011;13044;49.304;12.840;2022-07-06T03:51:44;3.85;;;2.92;;
25045;SDS011;13044;49.304;12.840;2022-07-06T03:54:11;4.75;;;2.85;;
25045;SDS011;13044;49.304;12.840;2022-07-06T03:56:38;4.30;;;2.88;;
25045;SDS011;13044;49.304;12.840;2022-07-06T03:59:05;6.85;;;2.88;;
25045;SDS011;13044;49.304;12.840;2022-07-06T04:01:32;6.53;;;3.10;;
25045;SDS011;13044;49.304;12.840;2022-07-06T04:03:59;4.55;;;2.60;;
25045;SDS011;13044;49.304;12.840;2022-07-06T04:06:25;4.00;;;2.90;;
25045;SDS011;13044;49.304;12.840;2022-07-06T04:08:52;8.23;;;3.00;;
25045;SDS011;13044;49.304;12.840;2022-07-06T04:11:19;5.80;;;2.67;;
25045;SDS011;13044;49.304;12.840;2022-07-06T04:13:46;3.80;;;2.85;;
25045;SDS011;13044;49.304;12.840;2022-07-06T04:16:13;4.65;;;2.80;;
25045;SDS011;13044;49.304;12.840;2022-07-06T04:18:40;3.45;;;3.15;;
25045;SDS011;13044;49.304;12.840;2022-07-06T04:21:07;9.07;;;3.03;;
25045;SDS011;13044;49.304;12.840;2022-07-06T04:23:34;5.55;;;3.13;;
25045;SDS011;13044;49.304;12.840;2022-07-06T04:26:01;4.72;;;3.45;;
25045;SDS011;13044;49.304;12.840;2022-07-06T04:28:28;4.57;;;2.92;;
25045;SDS011;13044;49.304;12.840;2022-07-06T04:30:56;4.63;;;2.88;;
25045;SDS011;13044;49.304;12.840;2022-07-06T04:33:23;7.45;;;3.53;;
25045;SDS011;13044;49.304;12.840;2022-07-06T04:35:50;3.40;;;3.10;;
25045;SDS011;13044;49.304;12.840;2022-07-06T04:38:17;4.70;;;2.95;;
25045;SDS011;13044;49.304;12.840;2022-07-06T04:40:45;3.95;;;3.05;;
25045;SDS011;13044;49.304;12.840;2022-07-06T04:43:14;4.15;;;2.90;;
25045;SDS011;13044;49.304;12.840;2022-07-06T04:45:41;5.13;;;2.80;;
25045;SDS011;13044;49.304;12.840;2022-07-06T04:48:08;7.43;;;3.10;;
25045;SDS011;13044;49.304;12.840;2022-07-06T04:50:36;7.57;;;3.20;;
25045;SDS011;13044;49.304;12.840;2022-07-06T04:53:05;4.13;;;3.60;;
25045;SDS011;13044;49.304;12.840;2022-07-06T04:55:32;4.50;;;3.45;;
25045;SDS011;13044;49.304;12.840;2022-07-06T04:57:59;3.67;;;3.38;;
25045;SDS011;13044;49.304;12.840;2022-07-06T05:00:26;4.10;;;3.30;;
25045;SDS011;13044;49.304;12.840;2022-07-06T05:02:54;5.63;;;3.47;;
25045;SDS011;13044;49.304;12.840;2022-07-06T05:05:21;6.53;;;3.33;;
25045;SDS011;13044;49.304;12.840;2022-07-06T05:07:48;4.68;;;3.50;;
25045;SDS011;13044;49.304;12.840;2022-07-06T05:10:15;6.68;;;3.10;;
25045;SDS011;13044;49.304;12.840;2022-07-06T05:12:42;6.28;;;2.80;;
25045;SDS011;13044;49.304;12.840;2022-07-06T05:15:09;6.03;;;3.05;;
25045;SDS011;13044;49.304;12.840;2022-07-06T05:17:36;6.80;;;3.60;;
25045;SDS011;13044;49.304;12.840;2022-07-06T05:20:04;11.43;;;3.38;;
25045;SDS011;13044;49.304;12.840;2022-07-06T05:22:32;3.45;;;3.13;;
25045;SDS011;13044;49.304;12.840;2022-07-06T05:24:59;3.95;;;2.85;;
25045;SDS011;13044;49.304;12.840;2022-07-06T05:27:26;8.07;;;3.00;;
25045;SDS011;13044;49.304;12.840;2022-07-06T05:29:53;5.88;;;3.35;;
25045;SDS011;13044;49.304;12.840;2022-07-06T05:32:19;8.90;;;3.10;;
25045;SDS011;13044;49.304;12.840;2022-07-06T05:34:46;6.38;;;3.17;;
25045;SDS011;13044;49.304;12.840;2022-07-06T05:37:13;6.13;;;3.00;;
25045;SDS011;13044;49.304;12.840;2022-07-06T05:39:40;3.80;;;2.53;;
25045;SDS011;13044;49.304;12.840;2022-07-06T05:42:10;4.18;;;2.60;;
25045;SDS011;13044;49.304;12.840;2022-07-06T05:44:37;5.18;;;2.65;;
25045;SDS011;13044;49.304;12.840;2022-07-06T05:47:04;5.15;;;2.38;;
25045;SDS011;13044;49.304;12.840;2022-07-06T05:49:49;7.75;;;2.72;;
25045;SDS011;13044;49.304;12.840;2022-07-06T05:52:35;6.43;;;2.80;;
25045;SDS011;13044;49.304;12.840;2022-07-06T05:55:02;8.68;;;2.80;;
25045;SDS011;13044;49.304;12.840;2022-07-06T05:57:29;4.45;;;2.55;;
25045;SDS011;13044;49.304;12.840;2022-07-06T05:59:56;5.75;;;2.67;;
25045;SDS011;13044;49.304;12.840;2022-07-06T06:02:23;3.92;;;2.53;;
25045;SDS011;13044;49.304;12.840;2022-07-06T06:04:50;8.60;;;2.40;;
25045;SDS011;13044;49.304;12.840;2022-07-06T06:07:17;7.80;;;2.30;;
25045;SDS011;13044;49.304;12.840;2022-07-06T06:09:44;3.38;;;2.33;;
25045;SDS011;13044;49.304;12.840;2022-07-06T06:12:11;4.63;;;2.20;;
25045;SDS011;13044;49.304;12.840;2022-07-06T06:14:38;3.55;;;2.30;;
25045;SDS011;13044;49.304;12.840;2022-07-06T06:17:05;4.60;;;2.25;;
25045;SDS011;13044;49.304;12.840;2022-07-06T06:19:35;4.57;;;2.22;;
25045;SDS011;13044;49.304;12.840;2022-07-06T06:22:02;3.20;;;2.35;;
25045;SDS011;13044;49.304;12.840;2022-07-06T06:24:30;4.75;;;2.30;;
25045;SDS011;13044;49.304;12.840;2022-07-06T06:26:57;3.05;;;2.10;;
25045;SDS011;13044;49.304;12.840;2022-07-06T06:29:25;8.77;;;3.08;;
25045;SDS011;13044;49.304;12.840;2022-07-06T06:31:52;5.53;;;2.42;;
25045;SDS011;13044;49.304;12.840;2022-07-06T06:34:19;3.80;;;2.60;;
25045;SDS011;13044;49.304;12.840;2022-07-06T06:36:46;3.92;;;2.35;;
25045;SDS011;13044;49.304;12.840;2022-07-06T06:39:13;5.47;;;2.30;;
25045;SDS011;13044;49.304;12.840;2022-07-06T06:41:40;4.07;;;2.42;;
25045;SDS011;13044;49.304;12.840;2022-07-06T06:44:07;4.15;;;2.65;;
25045;SDS011;13044;49.304;12.840;2022-07-06T06:46:34;3.25;;;2.65;;
25045;SDS011;13044;49.304;12.840;2022-07-06T06:49:01;3.30;;;2.33;;
25045;SDS011;13044;49.304;12.840;2022-07-06T06:51:28;5.35;;;2.45;;
25045;SDS011;13044;49.304;12.840;2022-07-06T06:53:55;8.98;;;2.70;;
25045;SDS011;13044;49.304;12.840;2022-07-06T06:56:22;4.65;;;2.20;;
25045;SDS011;13044;49.304;12.840;2022-07-06T06:58:49;5.47;;;2.63;;
25045;SDS011;13044;49.304;12.840;2022-07-06T07:01:36;5.82;;;2.15;;
25045;SDS011;13044;49.304;12.840;2022-07-06T07:04:03;5.82;;;2.47;;
25045;SDS011;13044;49.304;12.840;2022-07-06T07:06:32;3.80;;;2.40;;
25045;SDS011;13044;49.304;12.840;2022-07-06T07:08:59;4.68;;;2.47;;
25045;SDS011;13044;49.304;12.840;2022-07-06T07:11:26;2.78;;;2.20;;
25045;SDS011;13044;49.304;12.840;2022-07-06T07:13:53;5.40;;;2.40;;
25045;SDS011;13044;49.304;12.840;2022-07-06T07:16:20;4.35;;;2.10;;
25045;SDS011;13044;49.304;12.840;2022-07-06T07:18:47;7.00;;;2.17;;
25045;SDS011;13044;49.304;12.840;2022-07-06T07:21:14;3.45;;;2.35;;
25045;SDS011;13044;49.304;12.840;2022-07-06T07:23:41;2.92;;;2.20;;
25045;SDS011;13044;49.304;12.840;2022-07-06T07:26:08;2.33;;;2.10;;
25045;SDS011;13044;49.304;12.840;2022-07-06T07:28:35;4.47;;;2.58;;
25045;SDS011;13044;49.304;12.840;2022-07-06T07:31:02;4.47;;;2.10;;
25045;SDS011;13044;49.304;12.840;2022-07-06T07:33:30;3.13;;;2.10;;
25045;SDS011;13044;49.304;12.840;2022-07-06T07:35:57;4.82;;;1.92;;
25045;SDS011;13044;49.304;12.840;2022-07-06T07:38:24;3.40;;;2.65;;
25045;SDS011;13044;49.304;12.840;2022-07-06T07:40:55;5.15;;;2.28;;
25045;SDS011;13044;49.304;12.840;2022-07-06T07:43:22;8.05;;;2.30;;
25045;SDS011;13044;49.304;12.840;2022-07-06T07:45:49;2.47;;;2.03;;
25045;SDS011;13044;49.304;12.840;2022-07-06T07:48:16;3.72;;;2.50;;
25045;SDS011;13044;49.304;12.840;2022-07-06T07:50:42;8.10;;;2.47;;
25045;SDS011;13044;49.304;12.840;2022-07-06T07:53:11;5.30;;;2.22;;
25045;SDS011;13044;49.304;12.840;2022-07-06T07:55:38;6.70;;;2.33;;
25045;SDS011;13044;49.304;12.840;2022-07-06T07:58:07;4.68;;;2.25;;
25045;SDS011;13044;49.304;12.840;2022-07-06T08:00:35;4.18;;;2.30;;
25045;SDS011;13044;49.304;12.840;2022-07-06T08:03:02;3.60;;;2.25;;
25045;SDS011;13044;49.304;12.840;2022-07-06T08:05:29;4.15;;;2.08;;
25045;SDS011;13044;49.304;12.840;2022-07-06T08:07:56;3.35;;;2.20;;
25045;SDS011;13044;49.304;12.840;2022-07-06T08:10:23;3.33;;;2.30;;
25045;SDS011;13044;49.304;12.840;2022-07-06T08:12:50;9.68;;;2.70;;
25045;SDS011;13044;49.304;12.840;2022-07-06T08:15:17;4.20;;;2.15;;
25045;SDS011;13044;49.304;12.840;2022-07-06T08:17:44;5.80;;;2.10;;
25045;SDS011;13044;49.304;12.840;2022-07-06T08:20:11;5.53;;;2.20;;
25045;SDS011;13044;49.304;12.840;2022-07-06T08:22:38;5.63;;;2.45;;
25045;SDS011;13044;49.304;12.840;2022-07-06T08:25:06;3.92;;;2.85;;
25045;SDS011;13044;49.304;12.840;2022-07-06T08:27:34;3.03;;;2.00;;
25045;SDS011;13044;49.304;12.840;2022-07-06T08:30:02;3.10;;;2.10;;
25045;SDS011;13044;49.304;12.840;2022-07-06T08:32:30;8.63;;;2.15;;
25045;SDS011;13044;49.304;12.840;2022-07-06T08:35:17;6.60;;;2.13;;
25045;SDS011;13044;49.304;12.840;2022-07-06T08:37:44;4.25;;;2.03;;
25045;SDS011;13044;49.304;12.840;2022-07-06T08:40:11;2.42;;;2.22;;
25045;SDS011;13044;49.304;12.840;2022-07-06T08:42:38;4.93;;;2.40;;
25045;SDS011;13044;49.304;12.840;2022-07-06T08:45:06;5.68;;;2.42;;
25045;SDS011;13044;49.304;12.840;2022-07-06T08:47:36;2.25;;;1.80;;
25045;SDS011;13044;49.304;12.840;2022-07-06T08:50:04;3.08;;;2.17;;
25045;SDS011;13044;49.304;12.840;2022-07-06T08:52:32;3.45;;;1.85;;
25045;SDS011;13044;49.304;12.840;2022-07-06T08:54:59;3.30;;;2.05;;
25045;SDS011;13044;49.304;12.840;2022-07-06T08:57:27;3.78;;;2.33;;
25045;SDS011;13044;49.304;12.840;2022-07-06T08:59:55;4.15;;;1.90;;
25045;SDS011;13044;49.304;12.840;2022-07-06T09:02:25;8.18;;;2.22;;
25045;SDS011;13044;49.304;12.840;2022-07-06T09:04:56;4.63;;;2.00;;
25045;SDS011;13044;49.304;12.840;2022-07-06T09:07:26;5.78;;;2.20;;
25045;SDS011;13044;49.304;12.840;2022-07-06T09:10:14;4.85;;;1.80;;
25045;SDS011;13044;49.304;12.840;2022-07-06T09:12:45;2.90;;;1.90;;
25045;SDS011;13044;49.304;12.840;2022-07-06T09:15:12;2.83;;;1.88;;
25045;SDS011;13044;49.304;12.840;2022-07-06T09:17:41;3.22;;;2.17;;
25045;SDS011;13044;49.304;12.840;2022-07-06T09:20:12;2.95;;;2.22;;
25045;SDS011;13044;49.304;12.840;2022-07-06T09:22:40;5.03;;;2.00;;
25045;SDS011;13044;49.304;12.840;2022-07-06T09:25:11;2.47;;;1.95;;
25045;SDS011;13044;49.304;12.840;2022-07-06T09:27:42;3.38;;;2.00;;
25045;SDS011;13044;49.304;12.840;2022-07-06T09:30:16;2.75;;;1.95;;
25045;SDS011;13044;49.304;12.840;2022-07-06T09:32:45;3.78;;;2.10;;
25045;SDS011;13044;49.304;12.840;2022-07-06T09:38:06;4.13;;;2.10;;
25045;SDS011;13044;49.304;12.840;2022-07-06T09:40:35;2.72;;;2.22;;
25045;SDS011;13044;49.304;12.840;2022-07-06T09:45:48;7.53;;;1.92;;
25045;SDS011;13044;49.304;12.840;2022-07-06T09:50:58;2.85;;;2.03;;
25045;SDS011;13044;49.304;12.840;2022-07-06T09:53:34;4.95;;;2.33;;
25045;SDS011;13044;49.304;12.840;2022-07-06T09:56:02;3.13;;;2.20;;
25045;SDS011;13044;49.304;12.840;2022-07-06T09:58:30;3.42;;;1.90;;
25045;SDS011;13044;49.304;12.840;2022-07-06T10:01:27;3.78;;;2.22;;
25045;SDS011;13044;49.304;12.840;2022-07-06T10:03:55;4.03;;;1.92;;
25045;SDS011;13044;49.304;12.840;2022-07-06T10:06:23;4.28;;;2.08;;
25045;SDS011;13044;49.304;12.840;2022-07-06T10:08:51;2.83;;;1.90;;
25045;SDS011;13044;49.304;12.840;2022-07-06T10:11:21;3.03;;;2.17;;
25045;SDS011;13044;49.304;12.840;2022-07-06T10:13:50;4.65;;;1.90;;
25045;SDS011;13044;49.304;12.840;2022-07-06T10:18:51;2.70;;;1.90;;
25045;SDS011;13044;49.304;12.840;2022-07-06T10:21:21;2.38;;;1.70;;
25045;SDS011;13044;49.304;12.840;2022-07-06T10:23:49;4.90;;;1.70;;
25045;SDS011;13044;49.304;12.840;2022-07-06T10:26:17;3.30;;;1.98;;
25045;SDS011;13044;49.304;12.840;2022-07-06T10:28:44;7.18;;;2.10;;
25045;SDS011;13044;49.304;12.840;2022-07-06T10:31:14;2.85;;;1.98;;
25045;SDS011;13044;49.304;12.840;2022-07-06T10:33:42;3.00;;;1.60;;
25045;SDS011;13044;49.304;12.840;2022-07-06T10:36:10;1.77;;;1.45;;
25045;SDS011;13044;49.304;12.840;2022-07-06T10:38:38;1.35;;;1.23;;
25045;SDS011;13044;49.304;12.840;2022-07-06T10:41:06;2.33;;;1.40;;
25045;SDS011;13044;49.304;12.840;2022-07-06T10:43:42;5.13;;;1.33;;
25045;SDS011;13044;49.304;12.840;2022-07-06T10:46:15;2.85;;;1.30;;
25045;SDS011;13044;49.304;12.840;2022-07-06T10:48:47;4.47;;;1.58;;
25045;SDS011;13044;49.304;12.840;2022-07-06T10:51:24;5.15;;;1.50;;
25045;SDS011;13044;49.304;12.840;2022-07-06T10:53:57;3.55;;;1.27;;
25045;SDS011;13044;49.304;12.840;2022-07-06T10:56:39;2.28;;;1.08;;
25045;SDS011;13044;49.304;12.840;2022-07-06T10:59:09;2.83;;;1.30;;
25045;SDS011;13044;49.304;12.840;2022-07-06T11:04:48;2.65;;;1.13;;
25045;SDS011;13044;49.304;12.840;2022-07-06T11:07:16;4.55;;;1.40;;
25045;SDS011;13044;49.304;12.840;2022-07-06T11:09:55;4.93;;;1.40;;
25045;SDS011;13044;49.304;12.840;2022-07-06T11:12:25;2.75;;;1.35;;
25045;SDS011;13044;49.304;12.840;2022-07-06T11:14:53;1.60;;;1.50;;
25045;SDS011;13044;49.304;12.840;2022-07-06T11:17:20;2.80;;;1.67;;
25045;SDS011;13044;49.304;12.840;2022-07-06T11:19:49;2.60;;;1.48;;
25045;SDS011;13044;49.304;12.840;2022-07-06T11:22:35;3.40;;;1.40;;
25045;SDS011;13044;49.304;12.840;2022-07-06T11:25:04;1.98;;;1.33;;
25045;SDS011;13044;49.304;12.840;2022-07-06T11:27:34;2.15;;;1.30;;
25045;SDS011;13044;49.304;12.840;2022-07-06T11:30:01;1.95;;;1.63;;
25045;SDS011;13044;49.304;12.840;2022-07-06T11:32:28;6.75;;;1.38;;
25045;SDS011;13044;49.304;12.840;2022-07-06T11:34:55;2.15;;;1.40;;
25045;SDS011;13044;49.304;12.840;2022-07-06T11:37:22;3.30;;;1.10;;
25045;SDS011;13044;49.304;12.840;2022-07-06T11:39:49;8.60;;;1.85;;
25045;SDS011;13044;49.304;12.840;2022-07-06T11:42:17;8.10;;;1.42;;
25045;SDS011;13044;49.304;12.840;2022-07-06T11:44:44;2.70;;;1.10;;
25045;SDS011;13044;49.304;12.840;2022-07-06T11:47:12;7.63;;;1.20;;
25045;SDS011;13044;49.304;12.840;2022-07-06T11:49:49;3.28;;;1.35;;
25045;SDS011;13044;49.304;12.840;2022-07-06T11:52:18;1.63;;;1.20;;
25045;SDS011;13044;49.304;12.840;2022-07-06T11:54:45;2.95;;;1.30;;
25045;SDS011;13044;49.304;12.840;2022-07-06T11:57:12;3.28;;;1.23;;
25045;SDS011;13044;49.304;12.840;2022-07-06T11:59:40;2.75;;;1.33;;
25045;SDS011;13044;49.304;12.840;2022-07-06T12:04:41;4.07;;;1.30;;
25045;SDS011;13044;49.304;12.840;2022-07-06T12:07:10;8.00;;;1.70;;
25045;SDS011;13044;49.304;12.840;2022-07-06T12:09:41;2.88;;;1.23;;
25045;SDS011;13044;49.304;12.840;2022-07-06T12:12:11;1.88;;;0.88;;
25045;SDS011;13044;49.304;12.840;2022-07-06T12:14:40;4.13;;;1.30;;
25045;SDS011;13044;49.304;12.840;2022-07-06T12:17:11;8.10;;;1.60;;
25045;SDS011;13044;49.304;12.840;2022-07-06T12:19:41;3.55;;;1.30;;
25045;SDS011;13044;49.304;12.840;2022-07-06T12:22:09;6.55;;;1.38;;
25045;SDS011;13044;49.304;12.840;2022-07-06T12:24:37;2.17;;;1.40;;
25045;SDS011;13044;49.304;12.840;2022-07-06T12:27:15;3.55;;;1.60;;
25045;SDS011;13044;49.304;12.840;2022-07-06T12:29:44;3.15;;;1.23;;
25045;SDS011;13044;49.304;12.840;2022-07-06T12:32:16;3.95;;;1.40;;
25045;SDS011;13044;49.304;12.840;2022-07-06T12:34:46;1.75;;;1.20;;
25045;SDS011;13044;49.304;12.840;2022-07-06T12:37:13;3.17;;;1.50;;
25045;SDS011;13044;49.304;12.840;2022-07-06T12:39:44;2.10;;;1.48;;
25045;SDS011;13044;49.304;12.840;2022-07-06T12:42:14;1.80;;;1.23;;
25045;SDS011;13044;49.304;12.840;2022-07-06T12:44:54;2.38;;;1.10;;
25045;SDS011;13044;49.304;12.840;2022-07-06T12:47:21;6.10;;;1.60;;
25045;SDS011;13044;49.304;12.840;2022-07-06T12:50:07;2.50;;;1.50;;
25045;SDS011;13044;49.304;12.840;2022-07-06T12:52:37;5.13;;;1.30;;
25045;SDS011;13044;49.304;12.840;2022-07-06T12:55:05;5.20;;;1.70;;
25045;SDS011;13044;49.304;12.840;2022-07-06T12:57:46;2.20;;;1.30;;
25045;SDS011;13044;49.304;12.840;2022-07-06T13:00:15;3.63;;;1.40;;
25045;SDS011;13044;49.304;12.840;2022-07-06T13:02:44;3.95;;;1.30;;
25045;SDS011;13044;49.304;12.840;2022-07-06T13:05:34;4.88;;;1.30;;
25045;SDS011;13044;49.304;12.840;2022-07-06T13:08:02;3.13;;;1.40;;
25045;SDS011;13044;49.304;12.840;2022-07-06T13:10:29;2.83;;;1.48;;
25045;SDS011;13044;49.304;12.840;2022-07-06T13:12:57;3.35;;;1.75;;
25045;SDS011;13044;49.304;12.840;2022-07-06T13:15:24;7.60;;;1.60;;
25045;SDS011;13044;49.304;12.840;2022-07-06T13:17:51;4.75;;;1.48;;
25045;SDS011;13044;49.304;12.840;2022-07-06T13:20:18;3.88;;;1.30;;
25045;SDS011;13044;49.304;12.840;2022-07-06T13:22:45;3.53;;;1.30;;
25045;SDS011;13044;49.304;12.840;2022-07-06T13:25:12;11.65;;;1.67;;
25045;SDS011;13044;49.304;12.840;2022-07-06T13:27:40;3.10;;;1.10;;
25045;SDS011;13044;49.304;12.840;2022-07-06T13:30:07;1.10;;;1.00;;
25045;SDS011;13044;49.304;12.840;2022-07-06T13:32:35;3.05;;;1.10;;
25045;SDS011;13044;49.304;12.840;2022-07-06T13:35:02;2.42;;;1.25;;
25045;SDS011;13044;49.304;12.840;2022-07-06T13:37:29;3.78;;;1.50;;
25045;SDS011;13044;49.304;12.840;2022-07-06T13:39:56;1.33;;;1.05;;
25045;SDS011;13044;49.304;12.840;2022-07-06T13:42:22;2.10;;;1.10;;
25045;SDS011;13044;49.304;12.840;2022-07-06T13:44:49;1.40;;;1.30;;
25045;SDS011;13044;49.304;12.840;2022-07-06T13:47:16;1.95;;;1.30;;
25045;SDS011;13044;49.304;12.840;2022-07-06T13:49:43;4.60;;;1.10;;
25045;SDS011;13044;49.304;12.840;2022-07-06T13:52:14;4.60;;;1.25;;
25045;SDS011;13044;49.304;12.840;2022-07-06T13:54:41;2.95;;;1.33;;
25045;SDS011;13044;49.304;12.840;2022-07-06T13:57:08;3.08;;;1.13;;
25045;SDS011;13044;49.304;12.840;2022-07-06T13:59:35;7.05;;;1.20;;
25045;SDS011;13044;49.304;12.840;2022-07-06T14:02:02;5.57;;;1.45;;
25045;SDS011;13044;49.304;12.840;2022-07-06T14:04:29;7.50;;;1.92;;
25045;SDS011;13044;49.304;12.840;2022-07-06T14:06:56;3.30;;;1.40;;
25045;SDS011;13044;49.304;12.840;2022-07-06T14:09:23;3.58;;;1.10;;
25045;SDS011;13044;49.304;12.840;2022-07-06T14:11:50;2.53;;;1.27;;
25045;SDS011;13044;49.304;12.840;2022-07-06T14:14:17;23.83;;;2.38;;
25045;SDS011;13044;49.304;12.840;2022-07-06T14:16:44;6.30;;;1.30;;
25045;SDS011;13044;49.304;12.840;2022-07-06T14:19:11;8.27;;;1.48;;
25045;SDS011;13044;49.304;12.840;2022-07-06T14:21:46;2.72;;;1.15;;
25045;SDS011;13044;49.304;12.840;2022-07-06T14:24:13;5.05;;;1.58;;
25045;SDS011;13044;49.304;12.840;2022-07-06T14:26:41;2.67;;;1.75;;
25045;SDS011;13044;49.304;12.840;2022-07-06T14:29:07;4.22;;;1.50;;
25045;SDS011;13044;49.304;12.840;2022-07-06T14:31:34;2.83;;;1.88;;
25045;SDS011;13044;49.304;12.840;2022-07-06T14:34:01;2.60;;;1.88;;
25045;SDS011;13044;49.304;12.840;2022-07-06T14:36:28;2.50;;;1.70;;
25045;SDS011;13044;49.304;12.840;2022-07-06T14:38:55;2.80;;;1.80;;
25045;SDS011;13044;49.304;12.840;2022-07-06T14:41:22;2.03;;;1.40;;
25045;SDS011;13044;49.304;12.840;2022-07-06T14:43:49;3.65;;;1.60;;
25045;SDS011;13044;49.304;12.840;2022-07-06T14:46:16;3.08;;;2.28;;
25045;SDS011;13044;49.304;12.840;2022-07-06T14:48:43;9.25;;;2.70;;
25045;SDS011;13044;49.304;12.840;2022-07-06T14:51:10;4.15;;;2.17;;
25045;SDS011;13044;49.304;12.840;2022-07-06T14:53:37;1.98;;;1.33;;
25045;SDS011;13044;49.304;12.840;2022-07-06T14:56:04;3.10;;;1.75;;